createdAt,value
2018-04-23T00:00:56.875Z,972.53
2018-04-23T00:01:56.882Z,972.49
2018-04-23T00:02:56.927Z,972.51
2018-04-23T00:03:56.888Z,972.47
2018-04-23T00:04:56.891Z,972.48
2018-04-23T00:05:56.892Z,972.48
2018-04-23T00:06:56.891Z,972.47
2018-04-23T00:08:07.703Z,972.48
2018-04-23T00:08:56.894Z,972.44
2018-04-23T00:09:56.900Z,972.46
2018-04-23T00:10:56.904Z,972.45
2018-04-23T00:11:56.899Z,972.52
2018-04-23T00:12:56.981Z,972.49
2018-04-23T00:13:56.904Z,972.48
2018-04-23T00:14:56.909Z,972.43
2018-04-23T00:15:56.912Z,972.42
2018-04-23T00:16:56.917Z,972.46
2018-04-23T00:17:56.917Z,972.44
2018-04-23T00:18:56.960Z,972.44
2018-04-23T00:19:56.917Z,972.41
2018-04-23T00:20:56.923Z,972.41
2018-04-23T00:21:56.930Z,972.44
2018-04-23T00:22:56.966Z,972.40
2018-04-23T00:23:56.932Z,972.42
2018-04-23T00:24:56.933Z,972.44
2018-04-23T00:25:56.930Z,972.44
2018-04-23T00:26:57.896Z,972.41
2018-04-23T00:27:56.979Z,972.40
2018-04-23T00:28:56.940Z,972.42
2018-04-23T00:29:56.943Z,972.41
2018-04-23T00:30:56.943Z,972.39
2018-04-23T00:31:56.947Z,972.38
2018-04-23T00:32:56.988Z,972.37
2018-04-23T00:33:56.954Z,972.37
2018-04-23T00:34:57.068Z,972.35
2018-04-23T00:35:56.961Z,972.34
2018-04-23T00:36:56.963Z,972.34
2018-04-23T00:37:57.004Z,972.34
2018-04-23T00:38:56.970Z,972.39
2018-04-23T00:39:56.961Z,972.39
2018-04-23T00:40:56.961Z,972.35
2018-04-23T00:41:56.997Z,972.34
2018-04-23T00:42:57.046Z,972.33
2018-04-23T00:43:56.979Z,972.31
2018-04-23T00:44:56.974Z,972.34
2018-04-23T00:45:56.979Z,972.33
2018-04-23T00:46:56.979Z,972.34
2018-04-23T00:47:56.982Z,972.36
2018-04-23T00:48:57.027Z,972.36
2018-04-23T00:49:56.987Z,972.34
2018-04-23T00:50:56.984Z,972.37
2018-04-23T00:51:56.988Z,972.35
2018-04-23T00:52:56.991Z,972.36
2018-04-23T00:53:57.032Z,972.34
2018-04-23T00:54:56.993Z,972.30
2018-04-23T00:55:57.000Z,972.31
2018-04-23T00:56:57.001Z,972.33
2018-04-23T00:57:57.001Z,972.32
2018-04-23T00:58:57.036Z,972.33
2018-04-23T00:59:57.011Z,972.34
2018-04-23T01:00:57.011Z,972.34
2018-04-23T01:01:57.010Z,972.33
2018-04-23T01:02:57.009Z,972.28
2018-04-23T01:03:57.052Z,972.29
2018-04-23T01:04:57.013Z,972.28
2018-04-23T01:05:57.018Z,972.30
2018-04-23T01:06:57.010Z,972.28
2018-04-23T01:07:57.022Z,972.30
2018-04-23T01:08:57.080Z,972.27
2018-04-23T01:09:57.017Z,972.26
2018-04-23T01:10:57.026Z,972.24
2018-04-23T01:11:57.024Z,972.22
2018-04-23T01:12:57.024Z,972.22
2018-04-23T01:13:57.027Z,972.24
2018-04-23T01:14:57.073Z,972.24
2018-04-23T01:15:57.028Z,972.25
2018-04-23T01:16:57.036Z,972.23
2018-04-23T01:17:57.028Z,972.22
2018-04-23T01:18:57.032Z,972.22
2018-04-23T01:19:57.084Z,972.18
2018-04-23T01:20:57.037Z,972.17
2018-04-23T01:21:57.041Z,972.13
2018-04-23T01:22:57.045Z,972.15
2018-04-23T01:23:57.042Z,972.12
2018-04-23T01:25:15.225Z,972.13
2018-04-23T01:25:57.043Z,972.14
2018-04-23T01:26:57.057Z,972.15
2018-04-23T01:27:57.048Z,972.12
2018-04-23T01:28:57.053Z,972.17
2018-04-23T01:29:57.092Z,972.18
2018-04-23T01:30:57.055Z,972.15
2018-04-23T01:31:57.050Z,972.16
2018-04-23T01:32:57.059Z,972.16
2018-04-23T01:33:57.604Z,972.15
2018-04-23T01:34:57.103Z,972.16
2018-04-23T01:35:57.063Z,972.14
2018-04-23T01:36:57.065Z,972.15
2018-04-23T01:37:57.065Z,972.15
2018-04-23T01:38:57.062Z,972.14
2018-04-23T01:39:57.124Z,972.20
2018-04-23T01:40:57.068Z,972.18
2018-04-23T01:41:57.066Z,972.21
2018-04-23T01:42:57.069Z,972.24
2018-04-23T01:43:57.072Z,972.23
2018-04-23T01:45:11.228Z,972.18
2018-04-23T01:45:57.078Z,972.21
2018-04-23T01:46:57.078Z,972.21
2018-04-23T01:47:57.634Z,972.24
2018-04-23T01:48:57.082Z,972.24
2018-04-23T01:49:57.131Z,972.26
2018-04-23T01:50:57.085Z,972.24
2018-04-23T01:51:57.089Z,972.27
2018-04-23T01:53:57.126Z,972.25
2018-04-23T01:54:57.187Z,972.23
2018-04-23T01:55:57.128Z,972.27
2018-04-23T01:56:57.131Z,972.29
2018-04-23T01:57:57.131Z,972.29
2018-04-23T01:58:57.135Z,972.30
2018-04-23T01:59:57.192Z,972.30
2018-04-23T02:00:57.136Z,972.30
2018-04-23T02:01:57.140Z,972.31
2018-04-23T02:02:57.146Z,972.31
2018-04-23T02:03:57.187Z,972.31
2018-04-23T02:04:57.145Z,972.33
2018-04-23T02:05:57.147Z,972.32
2018-04-23T02:06:57.163Z,972.34
2018-04-23T02:07:57.153Z,972.37
2018-04-23T02:08:57.239Z,972.35
2018-04-23T02:09:57.159Z,972.37
2018-04-23T02:10:57.731Z,972.35
2018-04-23T02:11:57.163Z,972.35
2018-04-23T02:12:57.168Z,972.34
2018-04-23T02:13:57.165Z,972.40
2018-04-23T02:15:07.779Z,972.33
2018-04-23T02:15:57.177Z,972.35
2018-04-23T02:16:58.118Z,972.36
2018-04-23T02:17:57.179Z,972.36
2018-04-23T02:18:57.248Z,972.36
2018-04-23T02:19:57.183Z,972.34
2018-04-23T02:20:57.187Z,972.34
2018-04-23T02:22:00.028Z,972.40
2018-04-23T02:22:57.210Z,972.35
2018-04-23T02:23:57.197Z,972.36
2018-04-23T02:24:57.236Z,972.34
2018-04-23T02:25:57.200Z,972.35
2018-04-23T02:26:57.207Z,972.37
2018-04-23T02:27:59.028Z,972.37
2018-04-23T02:28:57.252Z,972.36
2018-04-23T02:29:57.206Z,972.38
2018-04-23T02:30:57.213Z,972.40
2018-04-23T02:31:57.215Z,972.38
2018-04-23T02:32:57.221Z,972.39
2018-04-23T02:33:57.273Z,972.37
2018-04-23T02:34:57.222Z,972.42
2018-04-23T02:35:59.268Z,972.43
2018-04-23T02:36:57.226Z,972.46
2018-04-23T02:37:57.237Z,972.46
2018-04-23T02:38:58.121Z,972.50
2018-04-23T02:39:57.746Z,972.47
2018-04-23T02:40:57.239Z,972.47
2018-04-23T02:41:57.243Z,972.49
2018-04-23T02:42:57.240Z,972.50
2018-04-23T02:43:57.247Z,972.48
2018-04-23T02:44:57.291Z,972.47
2018-04-23T02:45:57.256Z,972.46
2018-04-23T02:46:57.254Z,972.51
2018-04-23T02:47:57.268Z,972.52
2018-04-23T02:48:57.262Z,972.51
2018-04-23T02:50:11.766Z,972.54
2018-04-23T02:50:57.264Z,972.55
2018-04-23T02:51:57.269Z,972.51
2018-04-23T02:52:57.268Z,972.49
2018-04-23T02:53:57.271Z,972.46
2018-04-23T02:54:57.650Z,972.50
2018-04-23T02:55:57.349Z,972.50
2018-04-23T02:56:57.279Z,972.49
2018-04-23T02:57:57.519Z,972.53
2018-04-23T02:58:57.286Z,972.51
2018-04-23T02:59:57.289Z,972.52
2018-04-23T03:00:57.290Z,972.46
2018-04-23T03:01:57.335Z,972.43
2018-04-23T03:02:57.293Z,972.49
2018-04-23T03:03:57.300Z,972.46
2018-04-23T03:04:57.297Z,972.45
2018-04-23T03:05:57.308Z,972.43
2018-04-23T03:06:57.358Z,972.43
2018-04-23T03:07:57.303Z,972.41
2018-04-23T03:08:57.309Z,972.42
2018-04-23T03:09:57.311Z,972.42
2018-04-23T03:10:57.318Z,972.44
2018-04-23T03:11:57.371Z,972.45
2018-04-23T03:12:57.319Z,972.44
2018-04-23T03:13:57.320Z,972.42
2018-04-23T03:14:57.324Z,972.42
2018-04-23T03:15:57.325Z,972.40
2018-04-23T03:16:59.254Z,972.44
2018-04-23T03:17:57.355Z,972.39
2018-04-23T03:18:57.341Z,972.41
2018-04-23T03:19:57.350Z,972.40
2018-04-23T03:20:57.343Z,972.39
2018-04-23T03:21:57.395Z,972.37
2018-04-23T03:22:57.345Z,972.35
2018-04-23T03:23:57.346Z,972.35
2018-04-23T03:24:57.357Z,972.37
2018-04-23T03:25:57.350Z,972.32
2018-04-23T03:26:57.404Z,972.35
2018-04-23T03:27:57.359Z,972.37
2018-04-23T03:28:57.360Z,972.37
2018-04-23T03:29:57.446Z,972.38
2018-04-23T03:30:57.753Z,972.42
2018-04-23T03:31:57.419Z,972.39
2018-04-23T03:32:57.386Z,972.40
2018-04-23T03:33:57.374Z,972.38
2018-04-23T03:34:57.374Z,972.43
2018-04-23T03:35:57.391Z,972.41
2018-04-23T03:36:57.419Z,972.35
2018-04-23T03:37:57.381Z,972.34
2018-04-23T03:38:57.382Z,972.36
2018-04-23T03:39:57.382Z,972.39
2018-04-23T03:40:57.389Z,972.36
2018-04-23T03:41:57.670Z,972.39
2018-04-23T03:42:58.094Z,972.43
2018-04-23T03:43:57.466Z,972.43
2018-04-23T03:44:57.397Z,972.44
2018-04-23T03:45:57.422Z,972.42
2018-04-23T03:46:57.432Z,972.48
2018-04-23T03:47:57.440Z,972.45
2018-04-23T03:48:57.400Z,972.47
2018-04-23T03:49:57.405Z,972.47
2018-04-23T03:50:57.402Z,972.45
2018-04-23T03:51:57.433Z,972.48
2018-04-23T03:52:57.465Z,972.47
2018-04-23T03:53:57.410Z,972.45
2018-04-23T03:54:57.426Z,972.45
2018-04-23T03:55:57.414Z,972.48
2018-04-23T03:56:57.423Z,972.47
2018-04-23T03:57:57.467Z,972.48
2018-04-23T03:58:57.429Z,972.50
2018-04-23T03:59:57.430Z,972.49
2018-04-23T04:00:57.437Z,972.49
2018-04-23T04:01:57.474Z,972.49
2018-04-23T04:02:57.430Z,972.50
2018-04-23T04:03:57.639Z,972.55
2018-04-23T04:04:57.436Z,972.51
2018-04-23T04:05:57.440Z,972.56
2018-04-23T04:06:57.526Z,972.54
2018-04-23T04:07:57.441Z,972.48
2018-04-23T04:08:57.441Z,972.46
2018-04-23T04:09:58.039Z,972.49
2018-04-23T04:10:57.443Z,972.46
2018-04-23T04:11:57.455Z,972.48
2018-04-23T04:12:57.486Z,972.51
2018-04-23T04:13:57.450Z,972.47
2018-04-23T04:14:57.453Z,972.45
2018-04-23T04:15:57.451Z,972.47
2018-04-23T04:16:57.829Z,972.47
2018-04-23T04:17:57.455Z,972.48
2018-04-23T04:18:57.460Z,972.52
2018-04-23T04:19:57.465Z,972.55
2018-04-23T04:20:57.461Z,972.59
2018-04-23T04:21:57.466Z,972.58
2018-04-23T04:22:57.521Z,972.55
2018-04-23T04:23:57.471Z,972.60
2018-04-23T04:24:57.467Z,972.56
2018-04-23T04:25:57.472Z,972.59
2018-04-23T04:26:57.480Z,972.56
2018-04-23T04:27:57.549Z,972.57
2018-04-23T04:28:57.481Z,972.61
2018-04-23T04:29:57.474Z,972.59
2018-04-23T04:30:57.499Z,972.62
2018-04-23T04:31:57.481Z,972.61
2018-04-23T04:32:57.528Z,972.64
2018-04-23T04:33:57.506Z,972.61
2018-04-23T04:34:57.490Z,972.61
2018-04-23T04:35:57.492Z,972.62
2018-04-23T04:36:57.494Z,972.62
2018-04-23T04:37:57.575Z,972.63
2018-04-23T04:38:58.359Z,972.62
2018-04-23T04:39:57.499Z,972.65
2018-04-23T04:40:57.504Z,972.64
2018-04-23T04:41:57.508Z,972.65
2018-04-23T04:42:57.586Z,972.68
2018-04-23T04:43:57.578Z,972.70
2018-04-23T04:44:57.513Z,972.71
2018-04-23T04:45:57.506Z,972.68
2018-04-23T04:46:57.540Z,972.71
2018-04-23T04:48:00.774Z,972.68
2018-04-23T04:48:57.527Z,972.70
2018-04-23T04:49:57.536Z,972.68
2018-04-23T04:50:57.530Z,972.66
2018-04-23T04:51:57.531Z,972.67
2018-04-23T04:52:57.535Z,972.67
2018-04-23T04:53:57.591Z,972.68
2018-04-23T04:54:57.561Z,972.71
2018-04-23T04:55:57.641Z,972.71
2018-04-23T04:56:57.611Z,972.74
2018-04-23T04:57:57.612Z,972.70
2018-04-23T04:58:57.597Z,972.72
2018-04-23T04:59:57.567Z,972.73
2018-04-23T05:00:57.565Z,972.74
2018-04-23T05:01:57.597Z,972.71
2018-04-23T05:02:57.645Z,972.73
2018-04-23T05:03:57.567Z,972.70
2018-04-23T05:04:57.569Z,972.72
2018-04-23T05:05:57.585Z,972.71
2018-04-23T05:06:57.577Z,972.72
2018-04-23T05:07:58.397Z,972.71
2018-04-23T05:08:58.545Z,972.73
2018-04-23T05:09:57.622Z,972.72
2018-04-23T05:10:57.590Z,972.75
2018-04-23T05:12:02.545Z,972.80
2018-04-23T05:12:58.403Z,972.81
2018-04-23T05:13:57.605Z,972.81
2018-04-23T05:14:57.599Z,972.77
2018-04-23T05:15:57.619Z,972.80
2018-04-23T05:16:57.609Z,972.79
2018-04-23T05:17:57.677Z,972.79
2018-04-23T05:18:57.631Z,972.77
2018-04-23T05:19:57.638Z,972.80
2018-04-23T05:20:57.624Z,972.77
2018-04-23T05:21:57.747Z,972.77
2018-04-23T05:22:57.677Z,972.75
2018-04-23T05:23:57.629Z,972.76
2018-04-23T05:24:57.634Z,972.77
2018-04-23T05:25:57.645Z,972.81
2018-04-23T05:26:57.642Z,972.79
2018-04-23T05:27:57.693Z,972.78
2018-04-23T05:28:57.647Z,972.80
2018-04-23T05:29:57.669Z,972.82
2018-04-23T05:30:57.657Z,972.88
2018-04-23T05:31:57.657Z,972.87
2018-04-23T05:33:15.846Z,972.82
2018-04-23T05:33:57.670Z,972.88
2018-04-23T05:34:57.675Z,972.89
2018-04-23T05:35:58.397Z,972.90
2018-04-23T05:36:58.541Z,972.89
2018-04-23T05:37:57.758Z,972.97
2018-04-23T05:38:57.688Z,973.04
2018-04-23T05:39:57.685Z,973.12
2018-04-23T05:40:57.696Z,973.11
2018-04-23T05:41:57.698Z,973.18
2018-04-23T05:42:57.743Z,973.24
2018-04-23T05:43:57.751Z,973.26
2018-04-23T05:44:57.708Z,973.29
2018-04-23T05:45:57.848Z,973.32
2018-04-23T05:46:57.760Z,973.28
2018-04-23T05:47:57.722Z,973.28
2018-04-23T05:48:57.723Z,973.26
2018-04-23T05:49:57.729Z,973.27
2018-04-23T05:50:57.732Z,973.23
2018-04-23T05:51:57.788Z,973.25
2018-04-23T05:52:57.745Z,973.30
2018-04-23T05:53:57.744Z,973.30
2018-04-23T05:54:57.800Z,973.28
2018-04-23T05:55:58.708Z,973.30
2018-04-23T05:56:58.537Z,973.31
2018-04-23T05:57:57.763Z,973.35
2018-04-23T05:58:57.767Z,973.38
2018-04-23T05:59:57.773Z,973.41
2018-04-23T06:00:57.782Z,973.40
2018-04-23T06:01:57.829Z,973.43
2018-04-23T06:02:57.786Z,973.40
2018-04-23T06:03:57.788Z,973.34
2018-04-23T06:04:57.793Z,973.32
2018-04-23T06:05:57.793Z,973.41
2018-04-23T06:06:57.843Z,973.32
2018-04-23T06:07:57.805Z,973.38
2018-04-23T06:08:57.807Z,973.40
2018-04-23T06:09:57.814Z,973.34
2018-04-23T06:10:57.830Z,973.32
2018-04-23T06:11:57.894Z,973.29
2018-04-23T06:12:57.837Z,973.35
2018-04-23T06:13:57.834Z,973.29
2018-04-23T06:14:57.847Z,973.29
2018-04-23T06:15:57.846Z,973.32
2018-04-23T06:16:57.902Z,973.33
2018-04-23T06:17:57.858Z,973.34
2018-04-23T06:18:57.863Z,973.33
2018-04-23T06:19:57.869Z,973.33
2018-04-23T06:20:57.878Z,973.35
2018-04-23T06:21:57.937Z,973.38
2018-04-23T06:22:57.948Z,973.40
2018-04-23T06:23:57.891Z,973.38
2018-04-23T06:24:57.901Z,973.48
2018-04-23T06:25:58.360Z,973.53
2018-04-23T06:26:57.911Z,973.53
2018-04-23T06:27:57.920Z,973.56
2018-04-23T06:28:57.924Z,973.55
2018-04-23T06:29:57.930Z,973.48
2018-04-23T06:30:58.782Z,973.49
2018-04-23T06:31:57.939Z,973.44
2018-04-23T06:32:57.949Z,973.44
2018-04-23T06:33:57.948Z,973.40
2018-04-23T06:34:57.957Z,973.38
2018-04-23T06:36:19.169Z,973.37
2018-04-23T06:36:57.965Z,973.34
2018-04-23T06:37:57.981Z,973.34
2018-04-23T06:38:57.981Z,973.30
2018-04-23T06:39:57.981Z,973.28
2018-04-23T06:40:57.993Z,973.27
2018-04-23T06:41:58.035Z,973.30
2018-04-23T06:42:57.998Z,973.32
2018-04-23T06:43:58.007Z,973.32
2018-04-23T06:44:58.011Z,973.34
2018-04-23T06:45:58.012Z,973.38
2018-04-23T06:46:58.075Z,973.37
2018-04-23T06:47:58.025Z,973.37
2018-04-23T06:48:58.034Z,973.38
2018-04-23T06:49:58.043Z,973.47
2018-04-23T06:50:58.049Z,973.47
2018-04-23T06:51:58.098Z,973.48
2018-04-23T06:52:58.064Z,973.49
2018-04-23T06:53:58.067Z,973.46
2018-04-23T06:54:58.077Z,973.46
2018-04-23T06:55:58.079Z,973.57
2018-04-23T06:56:58.217Z,973.57
2018-04-23T06:57:58.089Z,973.57
2018-04-23T06:58:58.103Z,973.64
2018-04-23T06:59:58.103Z,973.68
2018-04-23T07:00:58.119Z,973.68
2018-04-23T07:01:58.169Z,973.66
2018-04-23T07:02:58.128Z,973.63
2018-04-23T07:03:58.130Z,973.62
2018-04-23T07:04:58.168Z,973.61
2018-04-23T07:05:58.462Z,973.59
2018-04-23T07:06:58.152Z,973.59
2018-04-23T07:07:58.160Z,973.57
2018-04-23T07:08:58.170Z,973.56
2018-04-23T07:09:58.187Z,973.56
2018-04-23T07:11:08.804Z,973.57
2018-04-23T07:11:58.197Z,973.56
2018-04-23T07:12:58.213Z,973.57
2018-04-23T07:13:58.209Z,973.56
2018-04-23T07:14:58.218Z,973.59
2018-04-23T07:15:58.262Z,973.59
2018-04-23T07:16:58.231Z,973.61
2018-04-23T07:17:58.243Z,973.66
2018-04-23T07:18:58.244Z,973.86
2018-04-23T07:19:58.254Z,973.85
2018-04-23T07:21:03.797Z,973.81
2018-04-23T07:21:58.271Z,973.90
2018-04-23T07:22:58.324Z,973.94
2018-04-23T07:23:58.286Z,973.81
2018-04-23T07:24:58.294Z,973.86
2018-04-23T07:25:59.295Z,973.87
2018-04-23T07:26:58.306Z,973.87
2018-04-23T07:27:58.322Z,973.92
2018-04-23T07:28:58.331Z,974.06
2018-04-23T07:29:58.340Z,974.03
2018-04-23T07:31:01.800Z,973.97
2018-04-23T07:31:58.364Z,974.02
2018-04-23T07:32:58.369Z,973.99
2018-04-23T07:33:58.376Z,974.10
2018-04-23T07:34:59.244Z,974.11
2018-04-23T07:36:03.805Z,974.11
2018-04-23T07:36:58.409Z,974.09
2018-04-23T07:37:58.422Z,974.14
2018-04-23T07:38:58.433Z,974.12
2018-04-23T07:39:58.436Z,974.16
2018-04-23T07:40:58.500Z,974.15
2018-04-23T07:41:58.462Z,973.95
2018-04-23T07:42:58.473Z,973.93
2018-04-23T07:43:58.486Z,973.89
2018-04-23T07:44:58.500Z,973.90
2018-04-23T07:45:58.559Z,973.89
2018-04-23T07:46:58.523Z,973.92
2018-04-23T07:47:58.534Z,973.91
2018-04-23T07:48:59.155Z,973.90
2018-04-23T07:49:58.558Z,973.85
2018-04-23T07:51:00.469Z,973.86
2018-04-23T07:51:58.636Z,973.83
2018-04-23T07:52:58.592Z,973.82
2018-04-23T07:53:58.612Z,973.83
2018-04-23T07:54:58.617Z,973.90
2018-04-23T07:55:58.624Z,974.08
2018-04-23T07:57:09.411Z,973.89
2018-04-23T07:57:58.649Z,973.91
2018-04-23T07:58:58.667Z,973.89
2018-04-23T07:59:58.695Z,973.90
2018-04-23T08:00:58.682Z,973.87
2018-04-23T08:02:06.309Z,973.87
2018-04-23T08:02:58.705Z,973.85
2018-04-23T08:03:58.717Z,973.86
2018-04-23T08:04:58.726Z,973.88
2018-04-23T08:05:58.735Z,973.90
2018-04-23T08:06:58.793Z,973.91
2018-04-23T08:07:58.750Z,973.91
2018-04-23T08:08:58.764Z,973.88
2018-04-23T08:09:58.774Z,973.87
2018-04-23T08:10:58.782Z,973.80
2018-04-23T08:11:58.838Z,973.82
2018-04-23T08:12:58.803Z,973.84
2018-04-23T08:13:58.809Z,973.87
2018-04-23T08:14:58.836Z,973.88
2018-04-23T08:15:58.831Z,973.90
2018-04-23T08:16:58.878Z,973.95
2018-04-23T08:17:58.924Z,973.98
2018-04-23T08:18:58.858Z,974.00
2018-04-23T08:19:58.867Z,974.03
2018-04-23T08:20:58.876Z,974.00
2018-04-23T08:21:58.928Z,974.01
2018-04-23T08:22:58.896Z,974.04
2018-04-23T08:23:58.904Z,974.11
2018-04-23T08:24:58.918Z,974.06
2018-04-23T08:25:59.756Z,974.02
2018-04-23T08:26:58.932Z,973.99
2018-04-23T08:27:58.992Z,973.94
2018-04-23T08:28:58.945Z,973.94
2018-04-23T08:29:58.957Z,973.97
2018-04-23T08:30:58.970Z,973.99
2018-04-23T08:31:59.001Z,973.95
2018-04-23T08:32:59.037Z,973.93
2018-04-23T08:33:58.999Z,973.92
2018-04-23T08:34:59.014Z,973.93
2018-04-23T08:35:59.045Z,973.89
2018-04-23T08:36:59.355Z,973.92
2018-04-23T08:37:59.043Z,973.88
2018-04-23T08:38:59.044Z,973.87
2018-04-23T08:39:59.060Z,973.88
2018-04-23T08:40:59.069Z,973.83
2018-04-23T08:41:59.351Z,973.84
2018-04-23T08:42:59.093Z,973.86
2018-04-23T08:43:59.143Z,973.86
2018-04-23T08:44:59.109Z,973.91
2018-04-23T08:45:59.121Z,973.89
2018-04-23T08:47:13.315Z,973.89
2018-04-23T08:47:59.138Z,973.94
2018-04-23T08:48:59.178Z,973.89
2018-04-23T08:49:59.153Z,973.89
2018-04-23T08:50:59.166Z,973.91
2018-04-23T08:51:59.174Z,973.89
2018-04-23T08:53:25.321Z,973.88
2018-04-23T08:53:59.195Z,973.84
2018-04-23T08:54:59.210Z,973.84
2018-04-23T08:55:59.212Z,973.87
2018-04-23T08:57:20.820Z,973.83
2018-04-23T08:57:59.233Z,973.81
2018-04-23T08:58:59.237Z,973.86
2018-04-23T08:59:59.261Z,973.87
2018-04-23T09:00:59.249Z,973.83
2018-04-23T09:14:23.858Z,974.05
2018-04-23T09:15:13.659Z,974.13
2018-04-23T09:16:12.859Z,974.11
2018-04-23T09:17:12.869Z,974.11
2018-04-23T09:18:39.376Z,974.13
2018-04-23T09:19:12.878Z,974.19
2018-04-23T09:20:14.221Z,974.16
2018-04-23T09:21:13.839Z,974.22
2018-04-23T09:22:15.889Z,974.26
2018-04-23T09:25:24.023Z,974.29
2018-04-23T09:25:45.409Z,974.32
2018-04-23T09:26:48.142Z,974.33
2018-04-23T09:27:45.329Z,974.41
2018-04-23T10:25:48.815Z,974.21
2018-04-23T10:26:19.408Z,974.26
2018-04-23T10:27:19.406Z,974.24
2018-04-23T10:28:19.414Z,974.26
2018-04-23T14:57:06.546Z,973.12
2018-04-23T14:57:43.428Z,973.10
2018-04-23T14:58:43.972Z,973.10
2018-04-23T14:59:43.433Z,973.10
2018-04-23T15:00:43.440Z,973.10
2018-04-23T15:01:43.492Z,973.12
2018-04-23T15:02:43.675Z,973.09
2018-04-23T15:03:43.455Z,973.08
2018-04-23T15:04:44.321Z,973.07
2018-04-23T15:05:43.462Z,973.07
2018-04-23T15:07:12.039Z,973.07
2018-04-23T15:07:43.467Z,973.00
2018-04-23T15:08:43.472Z,973.01
2018-04-23T15:09:43.476Z,973.00
2018-04-23T15:10:43.484Z,972.99
2018-04-23T15:11:43.483Z,972.95
2018-04-23T15:12:43.536Z,972.97
2018-04-23T15:13:43.496Z,972.95
2018-04-23T15:14:43.501Z,972.97
2018-04-23T15:15:43.502Z,972.94
2018-04-23T15:16:43.509Z,972.92
2018-04-23T15:17:43.729Z,972.95
2018-04-23T15:18:43.516Z,972.98
2018-04-23T15:19:43.516Z,973.02
2018-04-23T15:20:43.526Z,973.00
2018-04-23T15:21:58.045Z,972.98
2018-04-23T15:22:43.534Z,972.94
2018-04-23T15:23:43.536Z,972.93
2018-04-23T15:24:43.542Z,972.92
2018-04-23T15:25:43.542Z,972.89
2018-04-23T15:26:44.497Z,972.85
2018-04-23T15:43:00.142Z,973.20
2018-04-23T15:44:00.032Z,973.27
2018-04-23T15:45:00.035Z,973.24
2018-04-23T15:46:00.035Z,973.24
2018-04-23T15:47:00.038Z,973.26
2018-04-23T15:48:00.045Z,973.29
2018-04-23T15:49:00.091Z,973.29
2018-04-23T15:50:00.051Z,973.35
2018-04-23T15:51:00.059Z,973.35
2018-04-23T15:52:00.084Z,973.35
2018-04-23T15:53:00.064Z,973.36
2018-04-23T15:54:21.112Z,973.41
2018-04-23T15:55:00.074Z,973.42
2018-04-23T15:56:00.079Z,973.44
2018-04-23T15:57:00.071Z,973.45
2018-04-23T15:58:00.081Z,973.46
2018-04-23T15:59:22.030Z,973.38
2018-04-23T16:00:00.409Z,973.36
2018-04-23T16:01:00.090Z,973.35
2018-04-23T16:02:00.092Z,973.27
2018-04-23T16:03:00.262Z,973.35
2018-04-23T16:04:01.218Z,973.36
2018-04-23T16:05:00.113Z,973.33
2018-04-23T16:06:00.132Z,973.34
2018-04-23T16:07:00.111Z,973.29
2018-04-23T16:08:00.115Z,973.31
2018-04-23T16:09:12.425Z,973.29
2018-04-23T16:10:01.426Z,973.32
2018-04-23T16:11:00.124Z,973.32
2018-04-23T16:12:00.786Z,973.38
2018-04-23T16:13:00.127Z,973.43
2018-04-23T16:14:00.362Z,973.44
2018-04-23T16:15:00.137Z,973.44
2018-04-23T16:16:00.533Z,973.43
2018-04-23T16:17:00.139Z,973.42
2018-04-23T16:18:00.633Z,973.48
2018-04-23T16:19:00.150Z,973.50
2018-04-23T16:20:00.205Z,973.53
2018-04-23T16:21:00.158Z,973.52
2018-04-23T16:22:00.157Z,973.52
2018-04-23T16:23:00.158Z,973.55
2018-04-23T16:24:00.169Z,973.56
2018-04-23T16:25:01.174Z,973.56
2018-04-23T16:26:00.169Z,973.57
2018-04-23T16:27:00.176Z,973.57
2018-04-23T16:28:00.318Z,973.59
2018-04-23T16:29:00.178Z,973.62
2018-04-23T16:30:00.476Z,973.62
2018-04-23T16:31:00.199Z,973.59
2018-04-23T16:32:00.191Z,973.64
2018-04-23T16:33:00.195Z,973.61
2018-04-23T16:34:00.198Z,973.60
2018-04-23T16:35:00.201Z,973.65
2018-04-23T16:36:11.208Z,973.65
2018-04-23T16:37:00.208Z,973.65
2018-04-23T16:38:00.212Z,973.68
2018-04-23T16:39:00.216Z,973.66
2018-04-23T16:40:01.248Z,973.66
2018-04-23T16:41:00.234Z,973.65
2018-04-23T16:42:00.224Z,973.69
2018-04-23T16:43:00.337Z,973.65
2018-04-23T16:44:00.235Z,973.73
2018-04-23T16:45:00.664Z,973.70
2018-04-23T16:46:00.238Z,973.72
2018-04-23T16:47:00.248Z,973.69
2018-04-23T16:48:00.252Z,973.67
2018-04-23T16:49:00.250Z,973.64
2018-04-23T16:50:00.272Z,973.65
2018-04-23T16:51:00.302Z,973.57
2018-04-23T16:52:01.010Z,973.60
2018-04-23T16:53:00.263Z,973.56
2018-04-23T16:54:00.267Z,973.61
2018-04-23T16:55:00.475Z,973.60
2018-04-23T16:56:00.280Z,973.65
2018-04-23T16:57:00.279Z,973.64
2018-04-23T16:58:00.279Z,973.68
2018-04-23T16:59:00.284Z,973.67
2018-04-23T17:00:00.290Z,973.71
2018-04-23T17:01:08.156Z,973.73
2018-04-23T17:02:00.297Z,973.78
2018-04-23T17:03:00.301Z,973.81
2018-04-23T17:04:00.305Z,973.78
2018-04-23T17:05:00.305Z,973.84
2018-04-23T17:06:00.349Z,973.87
2018-04-23T17:07:00.320Z,973.92
2018-04-23T17:08:00.326Z,973.94
2018-04-23T17:09:00.326Z,974.02
2018-04-23T17:10:00.330Z,974.11
2018-04-23T17:17:08.356Z,974.19
2018-04-23T17:18:07.346Z,974.22
2018-04-23T17:19:07.348Z,974.20
2018-04-23T17:20:07.349Z,974.27
2018-04-23T17:21:07.389Z,974.30
2018-04-23T17:22:07.357Z,974.27
2018-04-23T17:23:07.361Z,974.28
2018-04-23T17:24:07.365Z,974.27
2018-04-23T17:25:07.369Z,974.24
2018-04-23T17:26:07.430Z,974.14
2018-04-23T17:27:07.374Z,974.20
2018-04-23T17:28:07.381Z,974.18
2018-04-23T17:29:07.382Z,974.20
2018-04-23T17:30:07.387Z,974.21
2018-04-23T17:31:07.497Z,974.24
2018-04-23T17:32:07.394Z,974.21
2018-04-23T17:33:07.394Z,974.21
2018-04-23T17:34:07.404Z,974.23
2018-04-23T17:35:07.409Z,974.22
2018-04-23T17:37:40.057Z,974.25
2018-04-23T17:38:39.030Z,974.23
2018-04-23T17:39:39.030Z,974.28
2018-04-23T17:40:39.033Z,974.26
2018-04-23T17:57:24.158Z,974.39
2018-04-23T17:57:56.532Z,974.38
2018-04-23T17:58:55.550Z,974.38
2018-04-23T17:59:56.138Z,974.36
2018-04-23T18:00:55.558Z,974.39
2018-04-23T18:01:55.628Z,974.38
2018-04-23T18:02:55.563Z,974.37
2018-04-23T18:03:55.573Z,974.33
2018-04-23T18:04:57.028Z,974.31
2018-04-23T18:05:55.570Z,974.31
2018-04-23T18:06:55.575Z,974.31
2018-04-23T18:07:58.934Z,974.29
2018-04-23T18:08:55.579Z,974.30
2018-04-23T18:09:55.642Z,974.30
2018-04-23T18:10:55.588Z,974.36
2018-04-23T18:11:56.110Z,974.41
2018-04-23T18:12:55.596Z,974.45
2018-04-23T18:13:55.599Z,974.48
2018-04-23T18:14:55.718Z,974.49
2018-04-23T18:15:55.605Z,974.45
2018-04-23T18:16:55.604Z,974.47
2018-04-23T18:17:55.659Z,974.48
2018-04-23T18:18:56.579Z,974.50
2018-04-23T18:20:02.525Z,974.54
2018-04-23T18:20:55.618Z,974.56
2018-04-23T18:21:55.625Z,974.55
2018-04-23T18:22:55.621Z,974.58
2018-04-23T18:23:55.630Z,974.62
2018-04-23T18:24:55.685Z,974.61
2018-04-23T18:25:55.702Z,974.61
2018-04-23T18:26:55.634Z,974.61
2018-04-23T18:27:55.638Z,974.62
2018-04-23T18:28:55.640Z,974.63
2018-04-23T18:29:55.722Z,974.63
2018-04-23T18:30:55.646Z,974.59
2018-04-23T18:31:55.647Z,974.59
2018-04-23T18:32:55.651Z,974.56
2018-04-23T18:33:55.658Z,974.59
2018-04-23T18:34:55.652Z,974.63
2018-04-23T18:36:01.176Z,974.67
2018-04-23T18:36:55.664Z,974.67
2018-04-23T18:37:55.667Z,974.67
2018-04-23T18:38:55.668Z,974.64
2018-04-23T18:39:55.669Z,974.64
2018-04-23T18:40:55.741Z,974.65
2018-04-23T18:41:55.678Z,974.68
2018-04-23T18:42:55.677Z,974.77
2018-04-23T18:43:55.681Z,974.82
2018-04-23T18:44:55.686Z,974.84
2018-04-23T18:45:55.734Z,974.92